sensor_id;sensor_type;location;lat;lon;timestamp;pressure;altitude;pressure_sealevel;temperature;humidity
22047;BME280;11187;49.412;20.956;2023-03-03T00:00:05;95161.72;;;-2.93;100.00
22047;BME280;11187;49.412;20.956;2023-03-03T00:03:03;95150.09;;;-2.92;100.00
22047;BME280;11187;49.412;20.956;2023-03-03T00:05:58;95144.16;;;-2.95;99.94
22047;BME280;11187;49.412;20.956;2023-03-03T00:08:31;95149.06;;;-2.98;100.00
22047;BME280;11187;49.412;20.956;2023-03-03T00:11:25;95145.69;;;-3.00;100.00
22047;BME280;11187;49.412;20.956;2023-03-03T00:17:00;95147.22;;;-3.03;99.95
22047;BME280;11187;49.412;20.956;2023-03-03T00:19:55;95140.44;;;-3.06;100.00
22047;BME280;11187;49.412;20.956;2023-03-03T00:22:48;95137.81;;;-3.09;100.00
22047;BME280;11187;49.412;20.956;2023-03-03T00:25:44;95143.47;;;-3.15;100.00
22047;BME280;11187;49.412;20.956;2023-03-03T00:28:49;95139.22;;;-3.17;100.00
22047;BME280;11187;49.412;20.956;2023-03-03T00:31:43;95145.91;;;-3.18;100.00
22047;BME280;11187;49.412;20.956;2023-03-03T00:37:21;95136.56;;;-3.22;100.00
22047;BME280;11187;49.412;20.956;2023-03-03T00:40:32;95131.50;;;-3.23;100.00
22047;BME280;11187;49.412;20.956;2023-03-03T00:43:23;95129.91;;;-3.21;100.00
22047;BME280;11187;49.412;20.956;2023-03-03T00:45:57;95123.16;;;-3.24;100.00
22047;BME280;11187;49.412;20.956;2023-03-03T00:48:51;95127.34;;;-3.23;100.00
22047;BME280;11187;49.412;20.956;2023-03-03T00:51:32;95127.34;;;-3.23;100.00
22047;BME280;11187;49.412;20.956;2023-03-03T00:54:18;95123.09;;;-3.25;100.00
22047;BME280;11187;49.412;20.956;2023-03-03T00:56:52;95128.84;;;-3.28;100.00
22047;BME280;11187;49.412;20.956;2023-03-03T00:59:45;95125.41;;;-3.31;100.00
22047;BME280;11187;49.412;20.956;2023-03-03T01:02:39;95122.72;;;-3.36;100.00
22047;BME280;11187;49.412;20.956;2023-03-03T01:05:15;95119.25;;;-3.40;100.00
22047;BME280;11187;49.412;20.956;2023-03-03T01:08:02;95120.91;;;-3.40;100.00
22047;BME280;11187;49.412;20.956;2023-03-03T01:10:44;95124.09;;;-3.44;100.00
22047;BME280;11187;49.412;20.956;2023-03-03T01:13:34;95120.59;;;-3.49;100.00
22047;BME280;11187;49.412;20.956;2023-03-03T01:16:09;95110.53;;;-3.51;100.00
22047;BME280;11187;49.412;20.956;2023-03-03T01:19:03;95113.88;;;-3.50;100.00
22047;BME280;11187;49.412;20.956;2023-03-03T01:21:36;95115.47;;;-3.52;100.00
22047;BME280;11187;49.412;20.956;2023-03-03T01:24:30;95113.03;;;-3.51;100.00
22047;BME280;11187;49.412;20.956;2023-03-03T01:27:24;95112.13;;;-3.53;100.00
22047;BME280;11187;49.412;20.956;2023-03-03T01:29:57;95107.03;;;-3.56;100.00
22047;BME280;11187;49.412;20.956;2023-03-03T01:32:51;95109.47;;;-3.58;100.00
22047;BME280;11187;49.412;20.956;2023-03-03T01:35:24;95107.78;;;-3.59;100.00
22047;BME280;11187;49.412;20.956;2023-03-03T01:38:11;95106.94;;;-3.58;100.00
22047;BME280;11187;49.412;20.956;2023-03-03T01:40:54;95103.44;;;-3.63;100.00
22047;BME280;11187;49.412;20.956;2023-03-03T01:43:48;95099.81;;;-3.71;100.00
22047;BME280;11187;49.412;20.956;2023-03-03T01:49:33;95102.22;;;-3.74;100.00
22047;BME280;11187;49.412;20.956;2023-03-03T01:52:18;95103.81;;;-3.76;100.00
22047;BME280;11187;49.412;20.956;2023-03-03T01:55:20;95096.22;;;-3.78;100.00
22047;BME280;11187;49.412;20.956;2023-03-03T01:58:06;95102.09;;;-3.77;100.00
22047;BME280;11187;49.412;20.956;2023-03-03T02:01:06;95095.56;;;-3.73;100.00
22047;BME280;11187;49.412;20.956;2023-03-03T02:03:42;95087.94;;;-3.76;100.00
22047;BME280;11187;49.412;20.956;2023-03-03T02:06:40;95092.88;;;-3.78;100.00
22047;BME280;11187;49.412;20.956;2023-03-03T02:09:41;95093.78;;;-3.76;100.00
22047;BME280;11187;49.412;20.956;2023-03-03T02:12:19;95091.22;;;-3.78;100.00
22047;BME280;11187;49.412;20.956;2023-03-03T02:15:20;95084.47;;;-3.80;100.00
22047;BME280;11187;49.412;20.956;2023-03-03T02:18:18;95087.72;;;-3.83;100.00
22047;BME280;11187;49.412;20.956;2023-03-03T02:21:18;95081.03;;;-3.84;100.00
22047;BME280;11187;49.412;20.956;2023-03-03T02:26:47;95073.41;;;-3.87;100.00
22047;BME280;11187;49.412;20.956;2023-03-03T02:29:33;95075.06;;;-3.87;100.00
22047;BME280;11187;49.412;20.956;2023-03-03T02:32:07;95080.13;;;-3.86;100.00
22047;BME280;11187;49.412;20.956;2023-03-03T02:35:00;95075.06;;;-3.87;100.00
22047;BME280;11187;49.412;20.956;2023-03-03T02:38:11;95070.13;;;-3.86;100.00
22047;BME280;11187;49.412;20.956;2023-03-03T02:41:05;95076.81;;;-3.85;100.00
22047;BME280;11187;49.412;20.956;2023-03-03T02:44:05;95080.00;;;-3.89;100.00
22047;BME280;11187;49.412;20.956;2023-03-03T02:47:00;95082.50;;;-3.89;100.00
22047;BME280;11187;49.412;20.956;2023-03-03T02:49:34;95085.13;;;-3.86;100.00
22047;BME280;11187;49.412;20.956;2023-03-03T02:52:28;95085.81;;;-3.90;100.00
22047;BME280;11187;49.412;20.956;2023-03-03T02:55:02;95083.25;;;-3.91;100.00
22047;BME280;11187;49.412;20.956;2023-03-03T02:57:56;95078.13;;;-3.94;100.00
22047;BME280;11187;49.412;20.956;2023-03-03T03:00:29;95080.47;;;-3.99;100.00
22047;BME280;11187;49.412;20.956;2023-03-03T03:03:23;95072.66;;;-4.07;100.00
22047;BME280;11187;49.412;20.956;2023-03-03T03:05:56;95075.97;;;-4.08;100.00
22047;BME280;11187;49.412;20.956;2023-03-03T03:08:42;95078.41;;;-4.09;100.00
22047;BME280;11187;49.412;20.956;2023-03-03T03:11:16;95078.47;;;-4.08;100.00
22047;BME280;11187;49.412;20.956;2023-03-03T03:14:11;95075.97;;;-4.08;100.00
22047;BME280;11187;49.412;20.956;2023-03-03T03:16:44;95071.81;;;-4.07;100.00
22047;BME280;11187;49.412;20.956;2023-03-03T03:19:37;95077.75;;;-4.05;100.00
22047;BME280;11187;49.412;20.956;2023-03-03T03:22:11;95071.31;;;-3.99;100.00
22047;BME280;11187;49.412;20.956;2023-03-03T03:24:57;95067.91;;;-4.01;100.00
22047;BME280;11187;49.412;20.956;2023-03-03T03:27:31;95066.91;;;-4.06;100.00
22047;BME280;11187;49.412;20.956;2023-03-03T03:30:18;95056.75;;;-4.09;100.00
22047;BME280;11187;49.412;20.956;2023-03-03T03:32:52;95056.59;;;-4.13;100.00
22047;BME280;11187;49.412;20.956;2023-03-03T03:35:38;95050.47;;;-4.22;100.00
22047;BME280;11187;49.412;20.956;2023-03-03T03:38:17;95056.25;;;-4.23;100.00
22047;BME280;11187;49.412;20.956;2023-03-03T03:41:05;95059.56;;;-4.24;100.00
22047;BME280;11187;49.412;20.956;2023-03-03T03:43:59;95049.47;;;-4.27;100.00
22047;BME280;11187;49.412;20.956;2023-03-03T03:46:54;95045.16;;;-4.31;100.00
22047;BME280;11187;49.412;20.956;2023-03-03T03:49:47;95046.66;;;-4.34;100.00
22047;BME280;11187;49.412;20.956;2023-03-03T03:52:21;95043.25;;;-4.36;100.00
22047;BME280;11187;49.412;20.956;2023-03-03T03:55:08;95039.91;;;-4.37;100.00
22047;BME280;11187;49.412;20.956;2023-03-03T03:57:41;95042.25;;;-4.42;100.00
22047;BME280;11187;49.412;20.956;2023-03-03T04:00:28;95044.50;;;-4.48;100.00
22047;BME280;11187;49.412;20.956;2023-03-03T04:03:01;95036.84;;;-4.52;100.00
22047;BME280;11187;49.412;20.956;2023-03-03T04:05:48;95033.50;;;-4.53;100.00
22047;BME280;11187;49.412;20.956;2023-03-03T04:08:23;95032.75;;;-4.50;100.00
22047;BME280;11187;49.412;20.956;2023-03-03T04:11:09;95028.00;;;-4.44;100.00
22047;BME280;11187;49.412;20.956;2023-03-03T04:13:43;95032.19;;;-4.43;100.00
22047;BME280;11187;49.412;20.956;2023-03-03T04:16:29;95028.78;;;-4.45;100.00
22047;BME280;11187;49.412;20.956;2023-03-03T04:19:03;95041.22;;;-4.47;100.00
22047;BME280;11187;49.412;20.956;2023-03-03T04:21:50;95035.41;;;-4.46;100.00
22047;BME280;11187;49.412;20.956;2023-03-03T04:24:23;95039.50;;;-4.48;100.00
22047;BME280;11187;49.412;20.956;2023-03-03T04:27:17;95038.56;;;-4.51;100.00
22047;BME280;11187;49.412;20.956;2023-03-03T04:30:12;95045.91;;;-4.54;100.00
22047;BME280;11187;49.412;20.956;2023-03-03T04:33:06;95035.03;;;-4.56;100.00
22047;BME280;11187;49.412;20.956;2023-03-03T04:35:59;95036.66;;;-4.57;100.00
22047;BME280;11187;49.412;20.956;2023-03-03T04:38:33;95037.34;;;-4.61;100.00
22047;BME280;11187;49.412;20.956;2023-03-03T04:41:20;95035.53;;;-4.65;100.00
22047;BME280;11187;49.412;20.956;2023-03-03T04:43:53;95030.25;;;-4.73;100.00
22047;BME280;11187;49.412;20.956;2023-03-03T04:46:47;95033.53;;;-4.74;100.00
22047;BME280;11187;49.412;20.956;2023-03-03T04:49:40;95030.13;;;-4.76;100.00
22047;BME280;11187;49.412;20.956;2023-03-03T04:52:35;95026.81;;;-4.75;100.00
22047;BME280;11187;49.412;20.956;2023-03-03T04:55:29;95028.41;;;-4.77;100.00
22047;BME280;11187;49.412;20.956;2023-03-03T04:58:23;95031.66;;;-4.79;100.00
22047;BME280;11187;49.412;20.956;2023-03-03T05:00:56;95036.63;;;-4.79;100.00
22047;BME280;11187;49.412;20.956;2023-03-03T05:03:43;95031.53;;;-4.83;100.00
22047;BME280;11187;49.412;20.956;2023-03-03T05:06:16;95033.13;;;-4.85;100.00
22047;BME280;11187;49.412;20.956;2023-03-03T05:09:03;95029.78;;;-4.85;100.00
22047;BME280;11187;49.412;20.956;2023-03-03T05:11:36;95036.44;;;-4.86;100.00
22047;BME280;11187;49.412;20.956;2023-03-03T05:14:23;95029.53;;;-4.91;100.00
22047;BME280;11187;49.412;20.956;2023-03-03T05:16:56;95033.00;;;-4.88;100.00
22047;BME280;11187;49.412;20.956;2023-03-03T05:19:45;95025.56;;;-4.86;100.00
22047;BME280;11187;49.412;20.956;2023-03-03T05:22:18;95026.44;;;-4.86;100.00
22047;BME280;11187;49.412;20.956;2023-03-03T05:25:12;95031.38;;;-4.87;100.00
22047;BME280;11187;49.412;20.956;2023-03-03T05:28:06;95030.63;;;-4.85;100.00
22047;BME280;11187;49.412;20.956;2023-03-03T05:30:39;95034.03;;;-4.83;100.00
22047;BME280;11187;49.412;20.956;2023-03-03T05:33:33;95030.13;;;-4.76;100.00
22047;BME280;11187;49.412;20.956;2023-03-03T05:36:06;95030.38;;;-4.70;100.00
22047;BME280;11187;49.412;20.956;2023-03-03T05:38:54;95035.53;;;-4.65;100.00
22047;BME280;11187;49.412;20.956;2023-03-03T05:41:27;95025.59;;;-4.64;100.00
22047;BME280;11187;49.412;20.956;2023-03-03T05:44:22;95032.41;;;-4.59;100.00
22047;BME280;11187;49.412;20.956;2023-03-03T05:46:55;95037.56;;;-4.55;100.00
22047;BME280;11187;49.412;20.956;2023-03-03T05:49:42;95035.25;;;-4.50;100.00
22047;BME280;11187;49.412;20.956;2023-03-03T05:52:15;95039.56;;;-4.46;100.00
22047;BME280;11187;49.412;20.956;2023-03-03T05:55:10;95041.41;;;-4.42;100.00
22047;BME280;11187;49.412;20.956;2023-03-03T05:57:43;95035.91;;;-4.33;100.00
22047;BME280;11187;49.412;20.956;2023-03-03T06:00:38;95040.25;;;-4.28;100.00
22047;BME280;11187;49.412;20.956;2023-03-03T06:03:32;95026.97;;;-4.27;100.00
22047;BME280;11187;49.412;20.956;2023-03-03T06:06:26;95030.34;;;-4.25;100.00
22047;BME280;11187;49.412;20.956;2023-03-03T06:09:20;95031.09;;;-4.27;100.00
22047;BME280;11187;49.412;20.956;2023-03-03T06:11:53;95035.47;;;-4.22;100.00
22047;BME280;11187;49.412;20.956;2023-03-03T06:14:47;95037.31;;;-4.17;100.00
22047;BME280;11187;49.412;20.956;2023-03-03T06:17:20;95037.47;;;-4.13;100.00
22047;BME280;11187;49.412;20.956;2023-03-03T06:20:07;95045.66;;;-3.93;100.00
22047;BME280;11187;49.412;20.956;2023-03-03T06:22:41;95041.31;;;-3.74;100.00
22047;BME280;11187;49.412;20.956;2023-03-03T06:25:28;95050.31;;;-3.55;100.00
22047;BME280;11187;49.412;20.956;2023-03-03T06:28:02;95046.72;;;-3.38;100.00
22047;BME280;11187;49.412;20.956;2023-03-03T06:30:56;95050.00;;;-3.15;100.00
22047;BME280;11187;49.412;20.956;2023-03-03T06:33:50;95053.22;;;-2.92;100.00
22047;BME280;11187;49.412;20.956;2023-03-03T06:36:44;95049.69;;;-2.71;100.00
22047;BME280;11187;49.412;20.956;2023-03-03T06:39:38;95046.06;;;-2.54;100.00
22047;BME280;11187;49.412;20.956;2023-03-03T06:42:32;95047.47;;;-2.35;100.00
22047;BME280;11187;49.412;20.956;2023-03-03T06:45:26;95051.34;;;-2.16;100.00
22047;BME280;11187;49.412;20.956;2023-03-03T06:47:59;95050.91;;;-2.03;100.00
22047;BME280;11187;49.412;20.956;2023-03-03T06:50:46;95057.91;;;-1.91;100.00
22047;BME280;11187;49.412;20.956;2023-03-03T06:53:19;95059.03;;;-1.81;100.00
22047;BME280;11187;49.412;20.956;2023-03-03T06:56:13;95056.72;;;-1.74;100.00
22047;BME280;11187;49.412;20.956;2023-03-03T06:59:14;95063.59;;;-1.68;100.00
22047;BME280;11187;49.412;20.956;2023-03-03T07:01:49;95064.56;;;-1.63;100.00
22047;BME280;11187;49.412;20.956;2023-03-03T07:04:36;95067.31;;;-1.54;100.00
22047;BME280;11187;49.412;20.956;2023-03-03T07:07:21;95073.38;;;-1.47;100.00
22047;BME280;11187;49.412;20.956;2023-03-03T07:10:23;95076.84;;;-1.42;100.00
22047;BME280;11187;49.412;20.956;2023-03-03T07:15:55;95067.63;;;-1.41;100.00
22047;BME280;11187;49.412;20.956;2023-03-03T07:18:54;95067.75;;;-1.37;100.00
22047;BME280;11187;49.412;20.956;2023-03-03T07:21:51;95077.97;;;-1.31;100.00
22047;BME280;11187;49.412;20.956;2023-03-03T07:24:58;95066.38;;;-1.26;100.00
22047;BME280;11187;49.412;20.956;2023-03-03T07:27:35;95071.63;;;-1.18;100.00
22047;BME280;11187;49.412;20.956;2023-03-03T07:30:30;95072.91;;;-0.99;100.00
22047;BME280;11187;49.412;20.956;2023-03-03T07:33:04;95081.09;;;-0.73;100.00
22047;BME280;11187;49.412;20.956;2023-03-03T07:35:53;95077.53;;;-0.46;100.00
22047;BME280;11187;49.412;20.956;2023-03-03T07:38:40;95073.84;;;-0.24;100.00
22047;BME280;11187;49.412;20.956;2023-03-03T07:41:35;95067.63;;;-0.01;100.00
22047;BME280;11187;49.412;20.956;2023-03-03T07:44:34;95075.56;;;0.18;100.00
22047;BME280;11187;49.412;20.956;2023-03-03T07:50:21;95068.72;;;0.53;99.16
22047;BME280;11187;49.412;20.956;2023-03-03T07:52:59;95074.88;;;0.68;98.95
22047;BME280;11187;49.412;20.956;2023-03-03T07:55:47;95070.00;;;0.77;98.04
22047;BME280;11187;49.412;20.956;2023-03-03T07:58:46;95067.69;;;0.88;98.49
22047;BME280;11187;49.412;20.956;2023-03-03T08:01:38;95070.31;;;0.95;98.11
22047;BME280;11187;49.412;20.956;2023-03-03T08:07:16;95071.91;;;0.90;97.61
22047;BME280;11187;49.412;20.956;2023-03-03T08:09:59;95077.03;;;0.93;97.78
22047;BME280;11187;49.412;20.956;2023-03-03T08:12:47;95068.59;;;0.91;97.54
22047;BME280;11187;49.412;20.956;2023-03-03T08:15:27;95076.13;;;0.90;98.35
22047;BME280;11187;49.412;20.956;2023-03-03T08:18:27;95077.88;;;0.95;98.67
22047;BME280;11187;49.412;20.956;2023-03-03T08:21:14;95062.84;;;1.00;98.37
22047;BME280;11187;49.412;20.956;2023-03-03T08:23:55;95059.63;;;1.07;98.48
22047;BME280;11187;49.412;20.956;2023-03-03T08:26:35;95076.56;;;1.14;97.99
22047;BME280;11187;49.412;20.956;2023-03-03T08:29:08;95065.72;;;1.20;97.83
22047;BME280;11187;49.412;20.956;2023-03-03T08:31:55;95064.16;;;1.28;98.07
22047;BME280;11187;49.412;20.956;2023-03-03T08:34:28;95062.63;;;1.36;97.86
22047;BME280;11187;49.412;20.956;2023-03-03T08:37:15;95057.78;;;1.49;97.61
22047;BME280;11187;49.412;20.956;2023-03-03T08:39:48;95054.50;;;1.56;96.95
22047;BME280;11187;49.412;20.956;2023-03-03T08:42:35;95061.41;;;1.66;97.10
22047;BME280;11187;49.412;20.956;2023-03-03T08:45:08;95050.63;;;1.78;96.20
22047;BME280;11187;49.412;20.956;2023-03-03T08:48:02;95053.94;;;1.74;95.70
22047;BME280;11187;49.412;20.956;2023-03-03T08:50:35;95046.41;;;1.77;96.17
22047;BME280;11187;49.412;20.956;2023-03-03T08:53:29;95039.69;;;1.77;95.70
22047;BME280;11187;49.412;20.956;2023-03-03T08:56:24;95030.66;;;1.93;95.56
22047;BME280;11187;49.412;20.956;2023-03-03T08:59:18;95014.94;;;2.17;94.86
22047;BME280;11187;49.412;20.956;2023-03-03T09:02:12;95019.50;;;2.46;94.67
22047;BME280;11187;49.412;20.956;2023-03-03T09:05:06;95021.25;;;2.51;93.29
22047;BME280;11187;49.412;20.956;2023-03-03T09:07:41;95028.22;;;2.72;93.36
22047;BME280;11187;49.412;20.956;2023-03-03T09:10:28;95025.16;;;3.06;92.95
22047;BME280;11187;49.412;20.956;2023-03-03T09:13:11;95022.03;;;3.34;92.14
22047;BME280;11187;49.412;20.956;2023-03-03T09:15:59;95015.47;;;3.57;91.58
22047;BME280;11187;49.412;20.956;2023-03-03T09:18:37;95016.41;;;3.72;91.46
22047;BME280;11187;49.412;20.956;2023-03-03T09:21:31;95002.22;;;4.05;90.69
22047;BME280;11187;49.412;20.956;2023-03-03T09:24:26;95018.41;;;4.36;88.52
22047;BME280;11187;49.412;20.956;2023-03-03T09:27:33;95017.69;;;4.73;88.30
22047;BME280;11187;49.412;20.956;2023-03-03T09:36:10;95036.34;;;5.19;85.99
22047;BME280;11187;49.412;20.956;2023-03-03T09:38:58;95027.91;;;5.16;85.44
22047;BME280;11187;49.412;20.956;2023-03-03T09:44:51;95032.13;;;5.17;85.62
22047;BME280;11187;49.412;20.956;2023-03-03T09:54:03;95020.28;;;5.00;83.69
22047;BME280;11187;49.412;20.956;2023-03-03T09:56:53;95021.94;;;4.85;83.12
22047;BME280;11187;49.412;20.956;2023-03-03T10:00:06;95024.44;;;4.71;82.70
22047;BME280;11187;49.412;20.956;2023-03-03T10:05:40;95011.66;;;4.45;83.27
22047;BME280;11187;49.412;20.956;2023-03-03T10:11:39;94997.25;;;4.28;84.10
22047;BME280;11187;49.412;20.956;2023-03-03T10:14:39;94994.69;;;4.27;85.11
22047;BME280;11187;49.412;20.956;2023-03-03T10:20:21;94989.66;;;4.25;84.30
22047;BME280;11187;49.412;20.956;2023-03-03T10:23:40;94994.72;;;4.33;83.67
22047;BME280;11187;49.412;20.956;2023-03-03T10:29:36;95010.81;;;4.43;84.01
22047;BME280;11187;49.412;20.956;2023-03-03T10:52:38;94997.34;;;4.56;81.65
22047;BME280;11187;49.412;20.956;2023-03-03T10:55:42;94993.13;;;4.50;81.09
22047;BME280;11187;49.412;20.956;2023-03-03T11:01:58;94993.09;;;4.52;82.31
22047;BME280;11187;49.412;20.956;2023-03-03T11:04:44;95004.09;;;4.52;81.79
22047;BME280;11187;49.412;20.956;2023-03-03T11:07:48;95007.41;;;4.37;80.93
22047;BME280;11187;49.412;20.956;2023-03-03T11:16:18;95009.91;;;4.21;82.68
22047;BME280;11187;49.412;20.956;2023-03-03T11:28:20;95017.31;;;3.87;84.43
22047;BME280;11187;49.412;20.956;2023-03-03T11:31:22;95016.50;;;3.86;84.70
22047;BME280;11187;49.412;20.956;2023-03-03T11:40:37;95017.28;;;3.78;85.34
22047;BME280;11187;49.412;20.956;2023-03-03T11:49:50;95016.28;;;3.59;85.49
22047;BME280;11187;49.412;20.956;2023-03-03T11:56:18;95016.22;;;3.49;86.58
22047;BME280;11187;49.412;20.956;2023-03-03T11:58:54;95026.38;;;3.51;86.65
22047;BME280;11187;49.412;20.956;2023-03-03T12:01:55;95023.84;;;3.51;87.08
22047;BME280;11187;49.412;20.956;2023-03-03T12:04:33;95030.56;;;3.47;86.13
22047;BME280;11187;49.412;20.956;2023-03-03T12:10:38;95019.53;;;3.38;86.00
22047;BME280;11187;49.412;20.956;2023-03-03T12:16:14;95009.31;;;3.28;86.27
22047;BME280;11187;49.412;20.956;2023-03-03T12:22:12;95011.88;;;3.30;86.81
22047;BME280;11187;49.412;20.956;2023-03-03T12:27:52;95000.88;;;3.25;85.37
22047;BME280;11187;49.412;20.956;2023-03-03T12:31:03;94997.50;;;3.26;86.05
22047;BME280;11187;49.412;20.956;2023-03-03T12:39:44;94996.63;;;3.22;84.90
22047;BME280;11187;49.412;20.956;2023-03-03T12:49:16;94984.00;;;3.25;85.12
22047;BME280;11187;49.412;20.956;2023-03-03T12:58:36;94989.94;;;3.27;85.23
22047;BME280;11187;49.412;20.956;2023-03-03T13:07:31;95000.88;;;3.23;85.02
22047;BME280;11187;49.412;20.956;2023-03-03T13:16:37;95001.66;;;3.19;85.13
22047;BME280;11187;49.412;20.956;2023-03-03T13:19:40;94987.31;;;3.17;84.35
22047;BME280;11187;49.412;20.956;2023-03-03T13:25:51;94994.09;;;3.21;84.34
22047;BME280;11187;49.412;20.956;2023-03-03T13:28:54;94989.88;;;3.21;84.90
22047;BME280;11187;49.412;20.956;2023-03-03T13:32:19;94989.06;;;3.25;83.51
22047;BME280;11187;49.412;20.956;2023-03-03T13:35:07;95000.06;;;3.30;83.81
22047;BME280;11187;49.412;20.956;2023-03-03T13:38:03;94989.13;;;3.33;83.77
22047;BME280;11187;49.412;20.956;2023-03-03T13:41:23;94981.50;;;3.31;84.03
22047;BME280;11187;49.412;20.956;2023-03-03T13:44:41;94980.66;;;3.31;83.56
22047;BME280;11187;49.412;20.956;2023-03-03T13:47:30;94968.00;;;3.31;84.22
22047;BME280;11187;49.412;20.956;2023-03-03T13:50:26;94970.56;;;3.29;84.40
22047;BME280;11187;49.412;20.956;2023-03-03T13:53:51;94970.50;;;3.26;84.76
22047;BME280;11187;49.412;20.956;2023-03-03T14:05:48;94957.81;;;3.19;85.45
22047;BME280;11187;49.412;20.956;2023-03-03T14:11:53;94950.19;;;3.16;85.46
22047;BME280;11187;49.412;20.956;2023-03-03T14:14:56;94949.38;;;3.17;85.61
22047;BME280;11187;49.412;20.956;2023-03-03T14:17:58;94945.16;;;3.19;85.22
22047;BME280;11187;49.412;20.956;2023-03-03T14:21:03;94950.25;;;3.22;84.47
22047;BME280;11187;49.412;20.956;2023-03-03T14:23:55;94941.88;;;3.27;84.42
22047;BME280;11187;49.412;20.956;2023-03-03T14:26:56;94945.25;;;3.31;84.76
22047;BME280;11187;49.412;20.956;2023-03-03T14:29:32;94944.41;;;3.30;84.80
22047;BME280;11187;49.412;20.956;2023-03-03T14:32:26;94945.22;;;3.26;84.96
22047;BME280;11187;49.412;20.956;2023-03-03T14:35:30;94944.34;;;3.21;85.69
22047;BME280;11187;49.412;20.956;2023-03-03T14:49:56;94936.66;;;3.10;86.24
22047;BME280;11187;49.412;20.956;2023-03-03T14:52:34;94928.25;;;3.10;86.22
22047;BME280;11187;49.412;20.956;2023-03-03T14:55:32;94930.75;;;3.08;86.02
22047;BME280;11187;49.412;20.956;2023-03-03T14:58:23;94941.69;;;3.06;86.50
22047;BME280;11187;49.412;20.956;2023-03-03T15:01:23;94934.06;;;3.00;86.92
22047;BME280;11187;49.412;20.956;2023-03-03T15:04:04;94946.72;;;2.98;86.68
22047;BME280;11187;49.412;20.956;2023-03-03T15:06:53;94949.22;;;2.97;86.69
22047;BME280;11187;49.412;20.956;2023-03-03T15:09:48;94945.81;;;2.95;86.65
22047;BME280;11187;49.412;20.956;2023-03-03T15:12:42;94950.88;;;2.91;87.19
22047;BME280;11187;49.412;20.956;2023-03-03T15:16:32;94952.47;;;2.82;87.18
22047;BME280;11187;49.412;20.956;2023-03-03T15:21:36;94962.50;;;2.74;87.19
22047;BME280;11187;49.412;20.956;2023-03-03T15:24:44;94964.16;;;2.70;87.31
22047;BME280;11187;49.412;20.956;2023-03-03T15:27:44;94970.03;;;2.66;87.22
22047;BME280;11187;49.412;20.956;2023-03-03T15:30:40;94969.13;;;2.61;87.24
22047;BME280;11187;49.412;20.956;2023-03-03T15:36:27;94974.91;;;2.51;87.37
22047;BME280;11187;49.412;20.956;2023-03-03T15:39:21;94968.09;;;2.44;87.58
22047;BME280;11187;49.412;20.956;2023-03-03T15:42:47;94964.66;;;2.34;87.31
22047;BME280;11187;49.412;20.956;2023-03-03T16:00:44;94966.00;;;2.06;87.75
22047;BME280;11187;49.412;20.956;2023-03-03T16:03:46;94963.38;;;2.00;88.38
22047;BME280;11187;49.412;20.956;2023-03-03T16:06:52;94972.63;;;1.96;88.17
22047;BME280;11187;49.412;20.956;2023-03-03T16:30:29;94980.25;;;1.37;91.17
22047;BME280;11187;49.412;20.956;2023-03-03T16:40:37;94985.81;;;1.17;91.50
22047;BME280;11187;49.412;20.956;2023-03-03T16:46:44;94992.38;;;1.06;92.02
22047;BME280;11187;49.412;20.956;2023-03-03T16:49:47;94992.25;;;1.00;92.42
22047;BME280;11187;49.412;20.956;2023-03-03T16:55:35;94992.09;;;0.89;92.87
22047;BME280;11187;49.412;20.956;2023-03-03T16:58:33;94997.94;;;0.88;92.82
22047;BME280;11187;49.412;20.956;2023-03-03T17:01:31;95001.19;;;0.81;93.10
22047;BME280;11187;49.412;20.956;2023-03-03T17:04:42;95006.13;;;0.75;93.84
22047;BME280;11187;49.412;20.956;2023-03-03T17:08:02;95010.25;;;0.70;94.24
22047;BME280;11187;49.412;20.956;2023-03-03T17:22:17;95025.72;;;0.44;95.42
22047;BME280;11187;49.412;20.956;2023-03-03T17:30:49;95021.28;;;0.31;96.77
22047;BME280;11187;49.412;20.956;2023-03-03T17:36:31;95030.44;;;0.26;96.37
22047;BME280;11187;49.412;20.956;2023-03-03T17:42:15;95026.19;;;0.23;96.25
22047;BME280;11187;49.412;20.956;2023-03-03T17:45:11;95032.78;;;0.18;96.51
22047;BME280;11187;49.412;20.956;2023-03-03T17:51:19;95036.81;;;0.10;97.42
22047;BME280;11187;49.412;20.956;2023-03-03T17:54:14;95036.72;;;0.05;97.77
22047;BME280;11187;49.412;20.956;2023-03-03T18:16:31;95043.94;;;-0.10;98.77
22047;BME280;11187;49.412;20.956;2023-03-03T18:19:01;95039.66;;;-0.14;98.22
22047;BME280;11187;49.412;20.956;2023-03-03T18:22:21;95045.44;;;-0.18;99.07
22047;BME280;11187;49.412;20.956;2023-03-03T18:25:25;95038.59;;;-0.26;99.03
22047;BME280;11187;49.412;20.956;2023-03-03T18:28:22;95046.97;;;-0.27;98.69
22047;BME280;11187;49.412;20.956;2023-03-03T18:31:25;95043.50;;;-0.30;99.26
22047;BME280;11187;49.412;20.956;2023-03-03T18:34:07;95055.19;;;-0.34;99.10
22047;BME280;11187;49.412;20.956;2023-03-03T18:36:59;95044.16;;;-0.39;99.68
22047;BME280;11187;49.412;20.956;2023-03-03T18:39:46;95041.53;;;-0.44;99.43
22047;BME280;11187;49.412;20.956;2023-03-03T18:42:42;95044.00;;;-0.47;99.36
22047;BME280;11187;49.412;20.956;2023-03-03T18:48:56;95043.06;;;-0.50;99.37
22047;BME280;11187;49.412;20.956;2023-03-03T18:54:27;95044.63;;;-0.55;99.22
22047;BME280;11187;49.412;20.956;2023-03-03T18:57:16;95045.41;;;-0.58;99.85
22047;BME280;11187;49.412;20.956;2023-03-03T19:00:13;95052.06;;;-0.60;99.72
22047;BME280;11187;49.412;20.956;2023-03-03T19:02:56;95047.00;;;-0.61;99.77
22047;BME280;11187;49.412;20.956;2023-03-03T19:05:36;95049.50;;;-0.63;99.83
22047;BME280;11187;49.412;20.956;2023-03-03T19:08:45;95046.88;;;-0.68;99.75
22047;BME280;11187;49.412;20.956;2023-03-03T19:14:43;95051.84;;;-0.69;99.35
22047;BME280;11187;49.412;20.956;2023-03-03T19:20:15;95047.41;;;-0.81;99.87
22047;BME280;11187;49.412;20.956;2023-03-03T19:23:22;95053.19;;;-0.83;99.88
22047;BME280;11187;49.412;20.956;2023-03-03T19:26:49;95052.34;;;-0.84;100.00
22047;BME280;11187;49.412;20.956;2023-03-03T19:29:59;95057.34;;;-0.86;99.57